Time;durP1;ratioP1;P1;durP2;ratioP2;P2;SDS_P1;SDS_P2;PMS_P1;PMS_P2;Temp;Humidity;BMP_temperature;BMP_pressure;BME280_temperature;BME280_humidity;BME280_pressure;Samples;Min_cycle;Max_cycle;Signal;HPM_P1;HPM_P2
2023/08/15 00:00:56;;;;;;;6.85;4.45;;;;;;;24.17;50.90;94861.16;5089490;28;20616;-43
2023/08/15 00:03:23;;;;;;;5.97;3.97;;;;;;;24.36;50.72;94882.88;5089638;28;20263;-42
2023/08/15 00:05:50;;;;;;;4.63;4.22;;;;;;;24.32;51.15;94883.53;5089811;28;20190;-43
2023/08/15 00:08:17;;;;;;;6.75;4.43;;;;;;;24.33;50.73;94888.53;5089858;28;20193;-43
2023/08/15 00:10:45;;;;;;;4.57;4.18;;;;;;;24.32;50.87;94883.53;5089606;28;20189;-45
2023/08/15 00:13:11;;;;;;;7.72;4.60;;;;;;;24.27;50.93;94881.59;5090082;28;20184;-44
2023/08/15 00:15:38;;;;;;;8.10;4.80;;;;;;;24.19;50.59;94858.34;5089700;28;20247;-43
2023/08/15 00:18:06;;;;;;;5.72;4.03;;;;;;;24.33;50.65;94883.31;5089801;28;20759;-44
2023/08/15 00:20:33;;;;;;;4.65;4.25;;;;;;;24.32;50.86;94884.34;5089324;28;20185;-43
2023/08/15 00:23:00;;;;;;;4.80;4.28;;;;;;;24.27;50.94;94885.00;5089774;28;20193;-43
2023/08/15 00:25:26;;;;;;;4.32;3.92;;;;;;;24.25;51.05;94875.78;5089359;28;20193;-43
2023/08/15 00:27:54;;;;;;;4.45;4.05;;;;;;;24.16;50.79;94862.19;5089398;28;20178;-45
2023/08/15 00:30:21;;;;;;;5.03;4.55;;;;;;;24.18;51.26;94875.84;5089567;28;21025;-44
2023/08/15 00:32:48;;;;;;;8.20;4.47;;;;;;;24.13;51.06;94862.63;5089087;28;20692;-44
2023/08/15 00:35:15;;;;;;;5.68;4.18;;;;;;;24.14;51.00;94866.84;5089371;28;20762;-44
2023/08/15 00:37:41;;;;;;;5.72;4.60;;;;;;;24.07;51.27;94858.28;5089314;28;20193;-45
2023/08/15 00:40:09;;;;;;;6.65;4.40;;;;;;;24.01;51.57;94854.72;5089634;28;20181;-45
2023/08/15 00:42:36;;;;;;;8.68;4.72;;;;;;;23.98;51.59;94854.34;5089007;28;20276;-43
2023/08/15 00:45:05;;;;;;;5.72;4.32;;;;;;;23.93;51.36;94844.56;5089744;28;20255;-44
2023/08/15 00:47:32;;;;;;;7.60;4.38;;;;;;;23.88;51.45;94844.41;5089105;28;20669;-43
2023/08/15 00:50:00;;;;;;;5.65;4.38;;;;;;;23.85;51.65;94842.22;5089148;28;20186;-43
2023/08/15 00:52:28;;;;;;;8.18;4.55;;;;;;;23.83;51.53;94846.84;5089149;28;20618;-44
2023/08/15 00:54:55;;;;;;;7.13;4.32;;;;;;;23.71;51.47;94836.34;5089165;28;20844;-43
2023/08/15 00:57:23;;;;;;;7.03;4.57;;;;;;;23.75;51.71;94836.69;5088837;28;20190;-43
2023/08/15 00:59:49;;;;;;;6.63;4.13;;;;;;;23.57;51.92;94813.13;5089369;28;20190;-45
2023/08/15 01:02:18;;;;;;;7.03;4.70;;;;;;;23.68;52.27;94841.97;5088898;28;20182;-45
2023/08/15 01:04:45;;;;;;;6.72;4.35;;;;;;;23.65;52.41;94836.38;5089121;28;20200;-45
2023/08/15 01:07:12;;;;;;;5.00;4.10;;;;;;;23.60;52.29;94831.78;5091831;28;20193;-43
2023/08/15 01:09:39;;;;;;;5.80;4.15;;;;;;;23.58;52.59;94828.59;5093591;28;20178;-45
2023/08/15 01:12:13;;;;;;;5.18;4.45;;;;;;;23.57;52.32;94824.34;5093002;28;20201;-45
2023/08/15 01:14:47;;;;;;;3.80;3.50;;;;;;;23.43;52.56;94802.00;5092498;28;20714;-45
2023/08/15 01:17:19;;;;;;;6.53;4.88;;;;;;;23.60;52.55;94816.09;5093163;28;20193;-43
2023/08/15 01:19:50;;;;;;;4.60;3.90;;;;;;;23.62;52.66;94818.50;5092703;28;20189;-43
2023/08/15 01:22:21;;;;;;;7.80;4.45;;;;;;;23.66;52.48;94812.69;5092582;28;20212;-41
2023/08/15 01:24:50;;;;;;;4.95;4.32;;;;;;;23.67;52.47;94810.88;5092890;28;20217;-44
2023/08/15 01:27:17;;;;;;;6.60;3.95;;;;;;;23.64;52.64;94813.88;5092933;28;20551;-43
2023/08/15 01:29:44;;;;;;;6.63;5.07;;;;;;;23.63;52.83;94814.88;5092591;28;20196;-44
2023/08/15 01:32:17;;;;;;;5.97;4.60;;;;;;;23.64;52.75;94813.88;5092745;28;20604;-43
2023/08/15 01:34:51;;;;;;;8.73;4.57;;;;;;;23.62;52.90;94811.47;5092148;28;20189;-44
2023/08/15 01:37:24;;;;;;;5.80;4.53;;;;;;;23.64;52.67;94808.66;5092990;28;20228;-42
2023/08/15 01:39:56;;;;;;;8.95;4.05;;;;;;;23.57;52.74;94805.28;5092665;28;20185;-45
2023/08/15 01:42:25;;;;;;;6.18;4.50;;;;;;;23.63;52.77;94804.44;5092170;28;20265;-45
2023/08/15 01:44:54;;;;;;;5.28;4.45;;;;;;;23.58;53.22;94806.91;5092400;28;20190;-42
2023/08/15 01:47:21;;;;;;;7.32;4.50;;;;;;;23.50;53.41;94810.59;5092381;28;20661;-45
2023/08/15 01:49:48;;;;;;;5.85;4.22;;;;;;;23.50;53.18;94806.16;5092143;28;20562;-45
2023/08/15 01:52:15;;;;;;;5.60;5.03;;;;;;;23.55;53.24;94802.91;5092131;28;20190;-44
2023/08/15 01:54:42;;;;;;;5.25;4.38;;;;;;;23.51;53.45;94797.31;5092376;28;20194;-45
2023/08/15 01:57:10;;;;;;;6.70;4.75;;;;;;;23.46;53.44;94796.38;5092629;28;20227;-42
2023/08/15 01:59:36;;;;;;;5.82;4.53;;;;;;;23.42;53.42;94798.59;5091955;28;20198;-43
2023/08/15 02:02:06;;;;;;;12.93;4.63;;;;;;;23.38;53.63;94797.44;5091913;28;20258;-43
2023/08/15 02:04:33;;;;;;;7.40;4.53;;;;;;;23.44;53.17;94798.38;5092133;28;20566;-45
2023/08/15 02:07:00;;;;;;;6.15;4.53;;;;;;;23.39;53.32;94798.22;5091638;28;20189;-45
2023/08/15 02:09:27;;;;;;;5.25;4.38;;;;;;;23.40;53.46;94794.59;5093470;28;20718;-43
2023/08/15 02:11:54;;;;;;;6.80;4.82;;;;;;;23.39;53.58;94798.22;5091834;28;20577;-43
2023/08/15 02:14:22;;;;;;;6.07;4.95;;;;;;;23.32;53.60;94803.53;5091850;28;20235;-43
2023/08/15 02:16:49;;;;;;;4.93;4.43;;;;;;;23.33;53.78;94796.47;5091840;28;20210;-45
2023/08/15 02:19:16;;;;;;;6.07;4.82;;;;;;;23.28;53.98;94802.34;5091827;28;20181;-44
2023/08/15 02:21:43;;;;;;;5.20;4.70;;;;;;;23.25;53.99;94805.38;5091345;28;20193;-44
2023/08/15 02:24:09;;;;;;;5.18;4.20;;;;;;;23.26;54.06;94805.16;5091903;28;20193;-45
2023/08/15 02:26:36;;;;;;;4.68;4.28;;;;;;;23.28;53.68;94799.75;5091129;28;20710;-44
2023/08/15 02:29:03;;;;;;;10.55;4.88;;;;;;;23.25;53.47;94808.78;5091422;28;20642;-43
2023/08/15 02:31:32;;;;;;;4.13;3.72;;;;;;;23.25;53.51;94805.38;5091074;28;20867;-44
2023/08/15 02:33:59;;;;;;;5.28;4.32;;;;;;;23.25;53.70;94813.19;5091369;28;20197;-43
2023/08/15 02:36:25;;;;;;;5.05;4.00;;;;;;;23.21;53.79;94809.41;5091072;28;20581;-43
2023/08/15 02:38:52;;;;;;;8.73;4.78;;;;;;;23.02;53.78;94777.28;5091130;28;20194;-43
2023/08/15 02:41:20;;;;;;;4.68;4.28;;;;;;;23.13;54.22;94802.66;5090877;28;20235;-43
2023/08/15 02:43:46;;;;;;;8.50;4.05;;;;;;;23.12;54.45;94800.25;5091578;28;20182;-44
2023/08/15 02:46:13;;;;;;;6.00;4.75;;;;;;;23.06;54.61;94796.69;5091098;28;20217;-44
2023/08/15 02:48:41;;;;;;;5.25;4.50;;;;;;;23.04;54.74;94796.09;5091131;28;20200;-44
2023/08/15 02:51:08;;;;;;;6.40;4.80;;;;;;;23.03;54.75;94803.13;5090902;28;20274;-44
2023/08/15 02:53:36;;;;;;;5.03;4.50;;;;;;;23.00;55.13;94800.94;5091353;28;20185;-44
2023/08/15 02:56:03;;;;;;;9.48;4.45;;;;;;;22.95;55.07;94797.38;5091038;28;20208;-43
2023/08/15 02:58:29;;;;;;;5.03;4.20;;;;;;;22.96;55.19;94799.75;5091068;28;20584;-46
2023/08/15 03:00:57;;;;;;;6.82;4.47;;;;;;;22.95;55.15;94802.59;5092053;28;20197;-45
2023/08/15 03:03:25;;;;;;;5.07;4.00;;;;;;;22.92;55.41;94801.19;5092271;28;20258;-43
2023/08/15 03:05:54;;;;;;;5.75;4.68;;;;;;;22.92;55.36;94795.97;5091594;28;20239;-44
2023/08/15 03:08:22;;;;;;;5.13;4.28;;;;;;;22.92;55.42;94795.97;5091628;28;20189;-44
2023/08/15 03:10:50;;;;;;;6.40;4.68;;;;;;;22.39;55.48;94720.69;5090769;28;20200;-43
2023/08/15 03:13:17;;;;;;;5.20;4.50;;;;;;;22.89;55.57;94800.81;5090416;28;20217;-43
2023/08/15 03:15:52;;;;;;;4.97;4.03;;;;;;;22.88;55.49;94807.00;5090547;28;20221;-41
2023/08/15 03:18:19;;;;;;;6.13;4.68;;;;;;;22.85;55.48;94812.66;5090334;28;20197;-44
2023/08/15 03:20:56;;;;;;;6.40;4.85;;;;;;;22.89;55.53;94806.81;5090743;28;20189;-45
2023/08/15 03:23:24;;;;;;;6.18;4.20;;;;;;;22.91;55.30;94822.28;5090186;28;20591;-43
2023/08/15 03:25:55;;;;;;;6.65;5.13;;;;;;;22.91;55.22;94820.47;5090164;28;20671;-43
2023/08/15 03:28:22;;;;;;;11.63;4.75;;;;;;;22.93;54.84;94815.84;5089713;28;20568;-43
2023/08/15 03:30:49;;;;;;;6.40;4.22;;;;;;;22.91;55.08;94811.84;5090122;28;20232;-44
2023/08/15 03:33:16;;;;;;;7.60;4.53;;;;;;;22.94;54.80;94798.38;5090400;28;20177;-43
2023/08/15 03:35:45;;;;;;;7.30;4.22;;;;;;;22.97;54.66;94805.78;5090098;28;20213;-44
2023/08/15 03:38:15;;;;;;;5.53;4.65;;;;;;;22.97;54.68;94813.59;5090257;28;20272;-43
2023/08/15 03:40:42;;;;;;;7.95;4.80;;;;;;;22.94;54.61;94812.22;5090388;28;20229;-44
2023/08/15 03:43:09;;;;;;;10.52;4.60;;;;;;;22.95;55.13;94820.84;5089832;28;20194;-44
2023/08/15 03:45:35;;;;;;;6.30;4.53;;;;;;;22.95;54.87;94816.44;5090008;28;20197;-45
2023/08/15 03:48:02;;;;;;;6.47;4.10;;;;;;;22.96;54.93;94809.41;5090283;28;20186;-45
2023/08/15 03:50:32;;;;;;;8.52;4.43;;;;;;;22.97;55.05;94813.59;5090197;28;20177;-41
2023/08/15 03:52:59;;;;;;;4.65;4.25;;;;;;;22.85;55.30;94800.44;5089651;28;20250;-43
2023/08/15 03:55:28;;;;;;;6.97;4.95;;;;;;;22.89;55.31;94799.00;5089802;28;20181;-44
2023/08/15 03:57:56;;;;;;;9.20;4.63;;;;;;;22.94;55.42;94819.25;5089775;28;20200;-44
2023/08/15 04:00:23;;;;;;;5.70;4.43;;;;;;;22.93;55.22;94815.84;5089685;28;20255;-45
2023/08/15 04:02:50;;;;;;;6.28;4.63;;;;;;;22.97;55.35;94818.81;5089888;28;20198;-44
2023/08/15 04:05:17;;;;;;;5.72;4.35;;;;;;;22.97;55.60;94822.25;5090518;28;20185;-43
2023/08/15 04:07:45;;;;;;;7.00;5.10;;;;;;;22.97;55.54;94814.44;5089733;28;20571;-44
2023/08/15 04:10:13;;;;;;;7.13;4.70;;;;;;;22.99;55.58;94819.41;5089767;28;20204;-44
2023/08/15 04:12:41;;;;;;;9.25;5.25;;;;;;;23.01;55.31;94826.03;5089655;28;20263;-44
2023/08/15 04:15:09;;;;;;;5.15;4.65;;;;;;;23.02;55.43;94826.84;5089370;28;20202;-46
2023/08/15 04:17:35;;;;;;;10.48;5.03;;;;;;;23.09;55.68;94832.00;5089946;28;20676;-45
2023/08/15 04:20:03;;;;;;;5.70;4.38;;;;;;;23.11;55.84;94836.00;5089368;28;20182;-43
2023/08/15 04:22:29;;;;;;;9.25;4.97;;;;;;;23.14;55.85;94819.09;5089314;28;20619;-43
2023/08/15 04:24:56;;;;;;;6.97;4.68;;;;;;;23.16;55.49;94817.88;5089407;28;20186;-44
2023/08/15 04:27:23;;;;;;;8.98;4.80;;;;;;;23.18;55.72;94817.66;5089385;28;20202;-44
2023/08/15 04:29:51;;;;;;;9.02;5.43;;;;;;;23.18;55.72;94828.91;5089422;28;20207;-44
2023/08/15 04:32:18;;;;;;;8.35;4.35;;;;;;;23.16;55.48;94828.31;5089381;28;20236;-42
2023/08/15 04:34:45;;;;;;;6.70;4.63;;;;;;;23.18;55.70;94828.09;5089089;28;20585;-44
2023/08/15 04:37:12;;;;;;;7.63;4.75;;;;;;;23.18;55.88;94828.09;5089187;28;20607;-43
2023/08/15 04:39:38;;;;;;;14.23;5.38;;;;;;;23.21;55.97;94832.91;5089446;28;20189;-43
2023/08/15 04:42:05;;;;;;;9.07;6.22;;;;;;;23.22;55.88;94837.09;5092109;28;20182;-44
2023/08/15 04:44:32;;;;;;;6.07;4.85;;;;;;;23.16;56.13;94825.72;5093573;28;20186;-44
2023/08/15 04:47:00;;;;;;;7.10;4.45;;;;;;;23.26;55.75;94849.50;5093032;28;20189;-44
2023/08/15 04:49:27;;;;;;;7.20;4.70;;;;;;;23.24;56.00;94856.78;5093389;28;20573;-45
2023/08/15 04:51:54;;;;;;;7.05;4.88;;;;;;;23.25;55.95;94850.53;5093024;28;20219;-46
2023/08/15 04:54:20;;;;;;;9.27;4.88;;;;;;;23.26;55.96;94852.13;5093179;28;20193;-43
2023/08/15 04:56:47;;;;;;;12.38;5.20;;;;;;;23.28;56.07;94852.72;5092931;28;20217;-44
2023/08/15 04:59:15;;;;;;;5.72;4.63;;;;;;;23.28;56.14;94860.56;5092982;28;20189;-42
2023/08/15 05:01:42;;;;;;;8.63;4.90;;;;;;;23.29;56.12;94854.31;5092701;28;20194;-43
2023/08/15 05:04:10;;;;;;;8.40;4.35;;;;;;;23.31;55.82;94864.53;5093146;28;20189;-45
2023/08/15 05:06:38;;;;;;;6.93;5.00;;;;;;;23.33;55.97;94856.50;5093163;28;20201;-45
2023/08/15 05:09:05;;;;;;;7.75;4.88;;;;;;;23.34;55.79;94858.91;5093461;28;20783;-46
2023/08/15 05:11:32;;;;;;;7.60;4.57;;;;;;;23.35;56.25;94864.91;5093195;28;20641;-42
2023/08/15 05:14:01;;;;;;;7.03;4.30;;;;;;;23.34;55.86;94869.34;5093326;28;20193;-46
2023/08/15 05:16:28;;;;;;;6.68;4.82;;;;;;;22.95;55.90;94806.00;5092757;28;20608;-44
2023/08/15 05:18:55;;;;;;;12.43;4.65;;;;;;;23.35;56.27;94878.75;5092615;28;20668;-46
2023/08/15 05:21:23;;;;;;;6.95;5.00;;;;;;;23.31;56.80;94868.97;5092865;28;20192;-45
2023/08/15 05:23:50;;;;;;;9.60;4.88;;;;;;;23.35;56.55;94878.75;5092571;28;20198;-42
2023/08/15 05:26:17;;;;;;;7.43;4.70;;;;;;;23.30;56.26;94873.38;5092768;28;20269;-44
2023/08/15 05:28:44;;;;;;;7.70;4.70;;;;;;;23.30;56.65;94878.59;5092495;28;20189;-43
2023/08/15 05:31:10;;;;;;;7.45;4.60;;;;;;;23.29;56.52;94880.41;5092827;28;20232;-42
2023/08/15 05:33:37;;;;;;;6.22;5.10;;;;;;;23.29;56.81;94882.22;5092674;28;20258;-48
2023/08/15 05:36:04;;;;;;;6.95;4.68;;;;;;;23.26;56.69;94888.66;5092838;28;20556;-44
2023/08/15 05:38:32;;;;;;;9.05;5.50;;;;;;;23.25;56.67;94876.63;5092389;28;20186;-44
2023/08/15 05:40:59;;;;;;;7.90;5.22;;;;;;;23.29;56.52;94875.19;5092601;28;20197;-45
2023/08/15 05:43:26;;;;;;;7.15;4.75;;;;;;;23.32;56.93;94873.19;5092472;28;20620;-49
2023/08/15 05:45:53;;;;;;;12.32;5.15;;;;;;;22.45;56.91;94730.31;5092839;28;20178;-44
2023/08/15 05:48:19;;;;;;;9.57;4.70;;;;;;;23.33;56.92;94872.97;5092865;28;20685;-44
2023/08/15 05:50:46;;;;;;;6.95;4.85;;;;;;;23.36;56.84;94883.00;5092760;28;20178;-44
2023/08/15 05:53:13;;;;;;;6.35;5.03;;;;;;;23.36;56.77;94879.56;5092195;28;20576;-43
2023/08/15 05:55:42;;;;;;;8.25;4.18;;;;;;;23.33;57.05;94875.56;5092374;28;20178;-44
2023/08/15 05:58:09;;;;;;;5.57;4.40;;;;;;;23.33;57.16;94877.38;5092675;28;20206;-46
2023/08/15 06:00:37;;;;;;;9.00;5.00;;;;;;;23.35;57.48;94873.53;5092719;28;20186;-43
2023/08/15 06:03:05;;;;;;;12.43;4.88;;;;;;;23.29;57.92;94877.00;5092294;28;20678;-45
2023/08/15 06:05:32;;;;;;;8.05;4.90;;;;;;;22.77;58.90;94814.50;5092214;28;20197;-45
2023/08/15 06:07:59;;;;;;;5.47;4.50;;;;;;;23.21;58.77;94870.22;5092522;28;20194;-45
2023/08/15 06:10:26;;;;;;;7.60;4.63;;;;;;;23.07;59.02;94857.50;5091960;28;20193;-48
2023/08/15 06:12:54;;;;;;;6.32;4.78;;;;;;;23.08;59.82;94885.19;5091934;28;20181;-45
2023/08/15 06:15:21;;;;;;;8.05;4.68;;;;;;;22.99;60.21;94882.81;5091785;28;20190;-44
2023/08/15 06:17:47;;;;;;;7.40;4.90;;;;;;;22.97;60.44;94884.84;5092125;28;20209;-44
2023/08/15 06:20:14;;;;;;;8.25;4.45;;;;;;;23.00;60.71;94883.63;5091623;28;20188;-44
2023/08/15 06:22:41;;;;;;;5.97;3.83;;;;;;;22.91;61.06;94880.47;5091751;28;20204;-45
2023/08/15 06:25:08;;;;;;;9.40;4.40;;;;;;;22.97;61.15;94878.81;5091634;28;20185;-44
2023/08/15 06:27:35;;;;;;;7.10;4.80;;;;;;;22.93;61.52;94888.88;5091909;28;20197;-45
2023/08/15 06:30:04;;;;;;;5.07;4.18;;;;;;;22.75;61.30;94866.09;5091397;28;20196;-45
2023/08/15 06:32:31;;;;;;;8.20;4.40;;;;;;;22.93;61.43;94890.69;5091198;28;20289;-43
2023/08/15 06:34:58;;;;;;;4.75;4.20;;;;;;;22.97;61.37;94889.25;5091420;28;20254;-42
2023/08/15 06:37:25;;;;;;;5.25;4.65;;;;;;;22.97;61.59;94887.47;5091114;28;20221;-44
2023/08/15 06:39:52;;;;;;;6.55;3.95;;;;;;;23.00;61.76;94896.66;5091022;28;20695;-43
2023/08/15 06:42:19;;;;;;;5.97;4.63;;;;;;;23.01;61.58;94896.47;5091174;28;20228;-44
2023/08/15 06:44:45;;;;;;;7.53;4.30;;;;;;;23.00;61.72;94894.84;5091368;28;20190;-45
2023/08/15 06:47:14;;;;;;;7.05;4.97;;;;;;;23.03;61.68;94894.44;5091108;28;20201;-44
2023/08/15 06:49:40;;;;;;;4.93;4.43;;;;;;;23.00;62.25;94894.84;5091217;28;20197;-45
2023/08/15 06:52:08;;;;;;;7.30;4.47;;;;;;;23.07;62.29;94907.88;5090995;28;20204;-45
2023/08/15 06:54:36;;;;;;;7.07;5.15;;;;;;;22.98;62.56;94901.31;5091044;28;20192;-44
2023/08/15 06:57:03;;;;;;;8.20;4.63;;;;;;;22.96;62.40;94893.66;5090470;28;20217;-44
2023/08/15 06:59:35;;;;;;;5.22;4.72;;;;;;;22.97;62.98;94905.72;5091240;28;20680;-44
2023/08/15 07:02:01;;;;;;;10.32;4.90;;;;;;;22.98;62.98;94903.91;5090920;28;20265;-43
2023/08/15 07:04:29;;;;;;;5.50;4.68;;;;;;;23.00;63.08;94913.09;5090253;28;20205;-42
2023/08/15 07:06:58;;;;;;;4.82;4.13;;;;;;;23.04;63.02;94910.88;5090900;28;20198;-43
2023/08/15 07:09:28;;;;;;;8.23;5.00;;;;;;;23.08;63.13;94912.06;5090250;28;20200;-44
2023/08/15 07:11:55;;;;;;;5.82;4.95;;;;;;;22.66;63.06;94832.63;5090893;28;20226;-43
2023/08/15 07:14:21;;;;;;;8.38;4.60;;;;;;;23.18;62.55;94901.16;5090267;28;20189;-45
2023/08/15 07:16:49;;;;;;;6.57;4.63;;;;;;;23.23;62.64;94912.59;5091087;28;20206;-44
2023/08/15 07:19:16;;;;;;;9.73;4.93;;;;;;;23.26;62.73;94912.16;5090329;28;20289;-43
2023/08/15 07:21:45;;;;;;;8.48;4.72;;;;;;;23.33;62.76;94916.53;5090660;28;20178;-43
2023/08/15 07:24:12;;;;;;;7.55;5.50;;;;;;;23.34;62.78;94907.69;5090408;28;20236;-44
2023/08/15 07:26:38;;;;;;;8.38;5.15;;;;;;;23.39;62.78;94918.28;5090751;28;20193;-43
2023/08/15 07:29:05;;;;;;;10.00;4.75;;;;;;;23.42;62.55;94913.47;5090182;28;20198;-42
2023/08/15 07:31:32;;;;;;;7.75;5.05;;;;;;;23.45;62.33;94907.03;5090256;28;20225;-42
2023/08/15 07:33:59;;;;;;;6.55;5.40;;;;;;;23.46;62.43;94909.41;5090325;28;20185;-42
2023/08/15 07:36:26;;;;;;;6.60;4.80;;;;;;;23.52;62.16;94907.75;5090381;28;20201;-44
2023/08/15 07:38:54;;;;;;;5.97;4.75;;;;;;;23.52;62.31;94905.16;5089784;28;20239;-44
2023/08/15 07:41:21;;;;;;;8.48;4.97;;;;;;;23.44;62.15;94897.56;5090706;28;20185;-44
2023/08/15 07:43:48;;;;;;;9.85;4.78;;;;;;;23.52;62.02;94912.97;5090116;28;20265;-44
2023/08/15 07:46:15;;;;;;;5.32;4.20;;;;;;;23.52;61.49;94913.78;5090126;28;20200;-43
2023/08/15 07:48:42;;;;;;;8.52;4.95;;;;;;;23.39;61.67;94895.59;5090228;28;20623;-44
2023/08/15 07:51:09;;;;;;;5.55;4.93;;;;;;;23.48;61.40;94911.81;5089664;28;20196;-43
2023/08/15 07:53:36;;;;;;;5.90;4.40;;;;;;;23.50;60.93;94912.41;5089919;28;20194;-43
2023/08/15 07:56:05;;;;;;;6.88;5.15;;;;;;;23.54;60.98;94905.75;5090225;28;20189;-43
2023/08/15 07:58:33;;;;;;;7.13;5.05;;;;;;;23.59;60.95;94916.34;5090133;28;20247;-44
2023/08/15 08:00:59;;;;;;;8.27;4.95;;;;;;;23.64;60.63;94911.28;5089649;28;20189;-43
2023/08/15 08:03:26;;;;;;;12.05;6.43;;;;;;;23.63;60.79;94904.47;5089733;28;20181;-44
2023/08/15 08:05:53;;;;;;;7.93;5.22;;;;;;;23.60;60.95;94910.09;5089435;28;20190;-44
2023/08/15 08:08:20;;;;;;;7.00;5.63;;;;;;;23.53;61.58;94901.50;5089527;28;20197;-45
2023/08/15 08:10:47;;;;;;;10.75;5.40;;;;;;;23.52;62.22;94905.16;5089383;28;20205;-45
2023/08/15 08:13:17;;;;;;;8.40;5.50;;;;;;;23.57;62.21;94899.28;5089585;28;20185;-42
2023/08/15 08:15:44;;;;;;;7.63;5.03;;;;;;;23.39;62.66;94892.19;5089619;28;20239;-45
2023/08/15 08:18:10;;;;;;;6.47;4.90;;;;;;;23.40;63.21;94907.66;5089421;28;20633;-45
2023/08/15 08:20:37;;;;;;;4.90;4.40;;;;;;;23.35;63.69;94922.34;5089649;28;20182;-44
2023/08/15 08:23:04;;;;;;;7.50;5.07;;;;;;;23.21;64.21;94919.03;5089495;28;20188;-43
2023/08/15 08:25:31;;;;;;;5.00;4.43;;;;;;;23.17;63.99;94917.84;5089572;28;20190;-44
2023/08/15 08:27:58;;;;;;;6.22;4.50;;;;;;;23.22;65.30;94908.34;5089225;28;20577;-45
2023/08/15 08:30:27;;;;;;;6.53;4.60;;;;;;;23.21;65.17;94917.19;5089796;28;20224;-43
2023/08/15 08:32:53;;;;;;;6.65;4.65;;;;;;;23.20;65.26;94913.00;5089119;28;20245;-42
2023/08/15 08:35:20;;;;;;;7.22;4.53;;;;;;;23.25;64.85;94910.56;5089700;28;20572;-46
2023/08/15 08:37:48;;;;;;;6.70;4.28;;;;;;;23.31;65.23;94908.91;5089371;28;20575;-46
2023/08/15 08:40:15;;;;;;;8.63;5.65;;;;;;;23.34;65.08;94905.09;5088026;28;20225;-45
2023/08/15 08:42:42;;;;;;;8.45;4.72;;;;;;;23.37;64.98;94902.06;5089329;28;20197;-44
2023/08/15 08:45:10;;;;;;;7.00;4.95;;;;;;;23.43;64.91;94902.00;5089664;28;20185;-45
2023/08/15 08:47:40;;;;;;;6.10;5.50;;;;;;;23.46;64.42;94904.19;5089501;28;20619;-46
2023/08/15 08:50:10;;;;;;;5.47;4.95;;;;;;;23.46;64.98;94898.19;5089163;28;20194;-43
2023/08/15 08:52:40;;;;;;;6.90;5.22;;;;;;;23.47;65.36;94897.16;5089176;28;20666;-43
2023/08/15 08:55:08;;;;;;;9.90;5.18;;;;;;;23.50;65.22;94884.47;5089150;28;20235;-45
2023/08/15 08:57:36;;;;;;;7.13;5.32;;;;;;;23.59;64.59;94890.25;5089180;28;20221;-44
2023/08/15 09:00:07;;;;;;;7.18;4.75;;;;;;;23.46;64.66;94862.41;5089160;28;20665;-45
2023/08/15 09:02:34;;;;;;;6.15;4.75;;;;;;;23.71;64.00;94895.59;5089343;28;20284;-46
2023/08/15 09:05:03;;;;;;;9.80;5.22;;;;;;;23.78;64.04;94888.50;5089357;28;20245;-45
2023/08/15 09:07:32;;;;;;;6.80;4.45;;;;;;;23.61;63.62;94853.47;5088932;28;20196;-44
2023/08/15 09:09:58;;;;;;;6.20;4.50;;;;;;;23.81;62.83;94893.28;5089339;28;20194;-43
2023/08/15 09:12:36;;;;;;;7.05;4.80;;;;;;;23.82;61.73;94892.28;5089054;28;20198;-43
2023/08/15 09:15:05;;;;;;;7.95;4.70;;;;;;;23.81;61.70;94895.09;5089394;28;20185;-44
2023/08/15 09:17:32;;;;;;;6.68;4.78;;;;;;;23.76;61.77;94888.72;5089124;28;20241;-44
2023/08/15 09:20:09;;;;;;;6.45;4.28;;;;;;;23.81;61.78;94882.06;5089151;28;20654;-43
2023/08/15 09:22:38;;;;;;;5.65;4.88;;;;;;;23.77;61.91;94877.25;5088803;28;20217;-44
2023/08/15 09:25:06;;;;;;;7.65;4.50;;;;;;;23.87;62.14;94879.34;5088836;28;20198;-43
2023/08/15 09:27:32;;;;;;;5.90;5.03;;;;;;;23.93;62.26;94878.50;5090997;28;20225;-42
2023/08/15 09:30:07;;;;;;;7.78;5.05;;;;;;;23.99;61.70;94877.63;5092775;28;20190;-46
2023/08/15 09:32:34;;;;;;;5.60;4.70;;;;;;;23.98;61.88;94873.44;5092875;28;20189;-44
2023/08/15 09:35:01;;;;;;;9.82;4.72;;;;;;;23.98;62.17;94881.28;5092873;28;20181;-46
2023/08/15 09:37:29;;;;;;;5.45;4.75;;;;;;;24.01;61.81;94880.06;5092701;28;20206;-45
2023/08/15 09:39:57;;;;;;;5.32;4.53;;;;;;;23.53;62.01;94804.91;5092310;28;20580;-46
2023/08/15 09:42:24;;;;;;;5.68;4.70;;;;;;;23.94;62.37;94866.25;5092640;28;20289;-43
2023/08/15 09:44:51;;;;;;;6.22;5.07;;;;;;;23.99;62.40;94880.25;5092110;28;20197;-44
2023/08/15 09:47:19;;;;;;;7.75;5.25;;;;;;;23.96;63.11;94869.44;5092647;28;20213;-46
2023/08/15 09:49:45;;;;;;;7.68;5.55;;;;;;;24.02;62.90;94871.19;5092882;28;20244;-45
2023/08/15 09:52:14;;;;;;;6.53;5.88;;;;;;;24.14;62.99;94872.06;5093307;28;20555;-45
2023/08/15 09:54:43;;;;;;;6.95;5.13;;;;;;;24.22;62.97;94871.78;5092311;28;20197;-43
2023/08/15 09:57:10;;;;;;;12.85;5.93;;;;;;;24.27;62.48;94873.75;5092300;28;20193;-45
2023/08/15 09:59:37;;;;;;;5.90;5.15;;;;;;;24.21;63.32;94866.75;5092559;28;20286;-45
2023/08/15 10:02:08;;;;;;;7.15;5.25;;;;;;;24.15;63.76;94850.16;5092785;28;20818;-46
2023/08/15 10:04:36;;;;;;;8.98;5.45;;;;;;;24.32;63.62;94865.25;5092838;28;20193;-45
2023/08/15 10:07:03;;;;;;;6.90;5.22;;;;;;;24.37;63.67;94866.22;5091914;28;20197;-43
2023/08/15 10:09:32;;;;;;;9.05;5.35;;;;;;;24.42;63.34;94873.41;5091945;28;20196;-44
2023/08/15 10:12:01;;;;;;;14.60;5.78;;;;;;;24.44;63.45;94866.16;5092054;28;20679;-45
2023/08/15 10:14:29;;;;;;;14.93;6.05;;;;;;;24.27;63.42;94850.22;5091889;28;20835;-45
2023/08/15 10:16:56;;;;;;;10.43;5.40;;;;;;;24.44;63.65;94872.19;5092665;28;20185;-45
2023/08/15 10:19:30;;;;;;;10.40;5.80;;;;;;;24.47;63.57;94870.91;5091979;28;20232;-45
2023/08/15 10:21:56;;;;;;;8.48;5.75;;;;;;;24.41;63.29;94871.81;5092566;28;20190;-44
2023/08/15 10:24:23;;;;;;;10.13;5.40;;;;;;;24.42;63.24;94870.78;5092714;28;20198;-44
2023/08/15 10:26:53;;;;;;;7.57;5.20;;;;;;;24.39;63.34;94869.41;5092011;28;20205;-44
2023/08/15 10:29:21;;;;;;;14.60;5.47;;;;;;;24.41;63.22;94870.00;5091745;28;20276;-45
2023/08/15 10:31:58;;;;;;;8.38;6.00;;;;;;;24.44;63.13;94871.38;5091501;28;20229;-44
2023/08/15 10:34:25;;;;;;;8.57;5.28;;;;;;;24.49;63.11;94867.06;5091476;28;20181;-46
2023/08/15 10:37:30;;;;;;;9.02;6.10;;;;;;;24.45;62.35;94878.19;5091507;28;20190;-44
2023/08/15 10:40:10;;;;;;;8.82;5.20;;;;;;;24.28;60.34;94850.00;5090088;28;20213;-44
2023/08/15 10:43:10;;;;;;;7.63;5.10;;;;;;;24.35;60.46;94870.81;5091371;28;20195;-43
2023/08/15 10:45:41;;;;;;;6.10;4.55;;;;;;;24.42;59.87;94878.63;5091522;28;20194;-44
2023/08/15 10:48:08;;;;;;;8.32;4.60;;;;;;;24.38;59.85;94878.25;5091269;28;20243;-46
2023/08/15 10:50:36;;;;;;;9.05;4.95;;;;;;;24.41;59.80;94879.66;5091599;28;20269;-43
2023/08/15 10:53:04;;;;;;;7.18;4.78;;;;;;;24.33;59.68;94874.69;5091002;28;20198;-43
2023/08/15 10:55:34;;;;;;;7.20;4.65;;;;;;;24.35;59.46;94870.81;5091431;28;20190;-44
2023/08/15 10:58:05;;;;;;;4.78;4.32;;;;;;;24.44;59.95;94879.22;5090835;28;20252;-45
2023/08/15 11:00:32;;;;;;;6.35;4.40;;;;;;;24.42;59.60;94870.78;5091097;28;20221;-45
2023/08/15 11:03:02;;;;;;;6.70;4.68;;;;;;;24.53;59.14;94878.69;5090821;28;20190;-44
2023/08/15 11:05:29;;;;;;;8.25;5.25;;;;;;;24.47;59.95;94881.38;5090794;28;20222;-44
2023/08/15 11:08:13;;;;;;;6.00;5.22;;;;;;;24.34;60.65;94877.06;5090973;28;20185;-44
2023/08/15 11:10:48;;;;;;;5.43;4.57;;;;;;;24.35;60.76;94877.88;5090676;28;20208;-43
2023/08/15 11:13:15;;;;;;;6.75;5.10;;;;;;;24.40;61.03;94885.91;5090104;28;20686;-43
2023/08/15 11:15:42;;;;;;;4.90;4.30;;;;;;;24.33;61.16;94878.09;5090653;28;20262;-43
2023/08/15 11:18:11;;;;;;;7.50;4.65;;;;;;;24.29;61.51;94884.78;5090419;28;20263;-44
2023/08/15 11:20:38;;;;;;;7.05;5.30;;;;;;;24.32;61.64;94881.72;5091109;28;20194;-44
2023/08/15 11:23:05;;;;;;;4.95;4.45;;;;;;;24.27;61.37;94874.53;5090205;28;20190;-43
2023/08/15 11:25:31;;;;;;;5.32;4.82;;;;;;;24.38;61.57;94867.81;5090512;28;20190;-43
2023/08/15 11:27:58;;;;;;;5.10;4.60;;;;;;;24.50;61.04;94870.50;5090441;28;20275;-43
2023/08/15 11:30:28;;;;;;;10.82;5.18;;;;;;;24.68;60.52;94880.13;5090052;28;20225;-43
2023/08/15 11:32:55;;;;;;;7.75;5.47;;;;;;;24.88;60.11;94882.50;5090306;28;20198;-45
2023/08/15 11:35:24;;;;;;;7.45;5.20;;;;;;;24.98;60.51;94877.50;5090275;28;20193;-44